sensor_id;sensor_type;location;lat;lon;timestamp;temperature;humidity
13848;DHT22;6994;49.752;6.094;2022-09-01T00:02:15;15.60;99.90
13848;DHT22;6994;49.752;6.094;2022-09-01T00:04:43;15.60;99.90
13848;DHT22;6994;49.752;6.094;2022-09-01T00:07:10;15.50;99.90
13848;DHT22;6994;49.752;6.094;2022-09-01T00:09:36;15.60;99.90
13848;DHT22;6994;49.752;6.094;2022-09-01T00:12:05;15.60;99.90
13848;DHT22;6994;49.752;6.094;2022-09-01T00:14:32;15.50;99.90
13848;DHT22;6994;49.752;6.094;2022-09-01T00:16:59;15.40;99.90
13848;DHT22;6994;49.752;6.094;2022-09-01T00:19:26;15.40;99.90
13848;DHT22;6994;49.752;6.094;2022-09-01T00:21:53;15.30;99.90
13848;DHT22;6994;49.752;6.094;2022-09-01T00:24:20;15.20;99.90
13848;DHT22;6994;49.752;6.094;2022-09-01T00:26:48;15.20;99.90
13848;DHT22;6994;49.752;6.094;2022-09-01T00:29:15;15.10;99.90
13848;DHT22;6994;49.752;6.094;2022-09-01T00:31:43;15.10;99.90
13848;DHT22;6994;49.752;6.094;2022-09-01T00:34:11;15.10;99.90
13848;DHT22;6994;49.752;6.094;2022-09-01T00:36:38;15.10;99.90
13848;DHT22;6994;49.752;6.094;2022-09-01T00:39:05;15.00;99.90
13848;DHT22;6994;49.752;6.094;2022-09-01T00:41:34;15.20;99.90
13848;DHT22;6994;49.752;6.094;2022-09-01T00:44:05;15.20;99.90
13848;DHT22;6994;49.752;6.094;2022-09-01T00:46:35;15.10;99.90
13848;DHT22;6994;49.752;6.094;2022-09-01T00:49:13;15.10;99.90
13848;DHT22;6994;49.752;6.094;2022-09-01T00:51:41;15.10;99.90
13848;DHT22;6994;49.752;6.094;2022-09-01T00:54:07;15.00;99.90
13848;DHT22;6994;49.752;6.094;2022-09-01T00:56:34;15.10;99.90
13848;DHT22;6994;49.752;6.094;2022-09-01T00:59:02;15.20;99.90
13848;DHT22;6994;49.752;6.094;2022-09-01T01:01:28;15.10;99.90
13848;DHT22;6994;49.752;6.094;2022-09-01T01:03:56;15.10;99.90
13848;DHT22;6994;49.752;6.094;2022-09-01T01:06:23;15.00;99.90
13848;DHT22;6994;49.752;6.094;2022-09-01T01:08:50;15.00;99.90
13848;DHT22;6994;49.752;6.094;2022-09-01T01:11:24;14.90;99.90
13848;DHT22;6994;49.752;6.094;2022-09-01T01:14:01;14.90;99.90
13848;DHT22;6994;49.752;6.094;2022-09-01T01:16:27;14.90;99.90
13848;DHT22;6994;49.752;6.094;2022-09-01T01:18:53;14.90;99.90
13848;DHT22;6994;49.752;6.094;2022-09-01T01:21:24;14.80;99.90
13848;DHT22;6994;49.752;6.094;2022-09-01T01:24:20;14.80;99.90
13848;DHT22;6994;49.752;6.094;2022-09-01T01:26:45;14.80;99.90
13848;DHT22;6994;49.752;6.094;2022-09-01T01:29:13;14.70;99.90
13848;DHT22;6994;49.752;6.094;2022-09-01T01:31:40;14.70;99.90
13848;DHT22;6994;49.752;6.094;2022-09-01T01:34:07;14.70;99.90
13848;DHT22;6994;49.752;6.094;2022-09-01T01:36:36;14.70;99.90
13848;DHT22;6994;49.752;6.094;2022-09-01T01:39:11;14.70;99.90
13848;DHT22;6994;49.752;6.094;2022-09-01T01:41:36;14.70;99.90
13848;DHT22;6994;49.752;6.094;2022-09-01T01:44:03;14.70;99.90
13848;DHT22;6994;49.752;6.094;2022-09-01T01:46:32;14.70;99.90
13848;DHT22;6994;49.752;6.094;2022-09-01T01:48:59;14.70;99.90
13848;DHT22;6994;49.752;6.094;2022-09-01T01:51:25;14.60;99.90
13848;DHT22;6994;49.752;6.094;2022-09-01T01:53:53;14.60;99.90
13848;DHT22;6994;49.752;6.094;2022-09-01T01:56:21;14.60;99.90
13848;DHT22;6994;49.752;6.094;2022-09-01T01:58:47;14.80;99.90
13848;DHT22;6994;49.752;6.094;2022-09-01T02:01:14;14.80;99.90
13848;DHT22;6994;49.752;6.094;2022-09-01T02:03:41;14.70;99.90
13848;DHT22;6994;49.752;6.094;2022-09-01T02:08:19;14.80;99.90
13848;DHT22;6994;49.752;6.094;2022-09-01T02:10:47;14.80;99.90
13848;DHT22;6994;49.752;6.094;2022-09-01T02:13:15;15.00;99.90
13848;DHT22;6994;49.752;6.094;2022-09-01T02:15:47;14.90;99.90
13848;DHT22;6994;49.752;6.094;2022-09-01T02:18:15;14.90;99.90
13848;DHT22;6994;49.752;6.094;2022-09-01T02:20:41;14.80;99.90
13848;DHT22;6994;49.752;6.094;2022-09-01T02:23:08;14.80;99.90
13848;DHT22;6994;49.752;6.094;2022-09-01T02:25:36;14.70;99.90
13848;DHT22;6994;49.752;6.094;2022-09-01T02:28:02;14.60;99.90
13848;DHT22;6994;49.752;6.094;2022-09-01T02:30:30;14.70;99.90
13848;DHT22;6994;49.752;6.094;2022-09-01T02:32:57;14.60;99.90
13848;DHT22;6994;49.752;6.094;2022-09-01T02:35:24;14.50;99.90
13848;DHT22;6994;49.752;6.094;2022-09-01T02:37:51;14.50;99.90
13848;DHT22;6994;49.752;6.094;2022-09-01T02:40:19;14.50;99.90
13848;DHT22;6994;49.752;6.094;2022-09-01T02:42:46;14.50;99.90
13848;DHT22;6994;49.752;6.094;2022-09-01T02:45:13;14.40;99.90
13848;DHT22;6994;49.752;6.094;2022-09-01T02:47:41;14.30;99.90
13848;DHT22;6994;49.752;6.094;2022-09-01T02:50:09;14.40;99.90
13848;DHT22;6994;49.752;6.094;2022-09-01T02:52:36;14.40;99.90
13848;DHT22;6994;49.752;6.094;2022-09-01T02:55:03;14.30;99.90
13848;DHT22;6994;49.752;6.094;2022-09-01T02:57:30;14.20;99.90
13848;DHT22;6994;49.752;6.094;2022-09-01T02:59:57;14.30;99.90
13848;DHT22;6994;49.752;6.094;2022-09-01T03:02:25;14.20;99.90
13848;DHT22;6994;49.752;6.094;2022-09-01T03:04:52;14.20;99.90
13848;DHT22;6994;49.752;6.094;2022-09-01T03:07:20;14.20;99.90
13848;DHT22;6994;49.752;6.094;2022-09-01T03:09:48;14.10;99.90
13848;DHT22;6994;49.752;6.094;2022-09-01T03:12:15;14.10;99.90
13848;DHT22;6994;49.752;6.094;2022-09-01T03:14:42;14.00;99.90
13848;DHT22;6994;49.752;6.094;2022-09-01T03:17:10;13.90;99.90
13848;DHT22;6994;49.752;6.094;2022-09-01T03:19:37;13.90;99.90
13848;DHT22;6994;49.752;6.094;2022-09-01T03:22:04;13.80;99.90
13848;DHT22;6994;49.752;6.094;2022-09-01T03:24:31;13.80;99.90
13848;DHT22;6994;49.752;6.094;2022-09-01T03:26:58;13.90;99.90
13848;DHT22;6994;49.752;6.094;2022-09-01T03:29:26;14.00;99.90
13848;DHT22;6994;49.752;6.094;2022-09-01T03:31:53;14.20;99.90
13848;DHT22;6994;49.752;6.094;2022-09-01T03:34:20;14.10;99.90
13848;DHT22;6994;49.752;6.094;2022-09-01T03:36:47;14.10;99.90
13848;DHT22;6994;49.752;6.094;2022-09-01T03:39:17;14.00;99.90
13848;DHT22;6994;49.752;6.094;2022-09-01T03:41:44;14.00;99.90
13848;DHT22;6994;49.752;6.094;2022-09-01T03:44:13;13.90;99.90
13848;DHT22;6994;49.752;6.094;2022-09-01T03:46:39;14.10;99.90
13848;DHT22;6994;49.752;6.094;2022-09-01T03:49:06;14.10;99.90
13848;DHT22;6994;49.752;6.094;2022-09-01T03:51:33;14.00;99.90
13848;DHT22;6994;49.752;6.094;2022-09-01T03:54:00;13.90;99.90
13848;DHT22;6994;49.752;6.094;2022-09-01T03:56:28;13.80;99.90
13848;DHT22;6994;49.752;6.094;2022-09-01T03:58:56;13.90;99.90
13848;DHT22;6994;49.752;6.094;2022-09-01T04:01:23;13.90;99.90
13848;DHT22;6994;49.752;6.094;2022-09-01T04:03:49;14.00;99.90
13848;DHT22;6994;49.752;6.094;2022-09-01T04:06:16;13.90;99.90
13848;DHT22;6994;49.752;6.094;2022-09-01T04:08:44;13.80;99.90
13848;DHT22;6994;49.752;6.094;2022-09-01T04:11:18;13.70;99.90
13848;DHT22;6994;49.752;6.094;2022-09-01T04:13:44;13.60;99.90
13848;DHT22;6994;49.752;6.094;2022-09-01T04:16:22;13.70;99.90
13848;DHT22;6994;49.752;6.094;2022-09-01T04:18:44;13.70;99.90
13848;DHT22;6994;49.752;6.094;2022-09-01T04:21:11;13.60;99.90
13848;DHT22;6994;49.752;6.094;2022-09-01T04:23:38;13.50;99.90
13848;DHT22;6994;49.752;6.094;2022-09-01T04:26:07;13.70;99.90
13848;DHT22;6994;49.752;6.094;2022-09-01T04:28:42;13.70;99.90
13848;DHT22;6994;49.752;6.094;2022-09-01T04:31:09;13.70;99.90
13848;DHT22;6994;49.752;6.094;2022-09-01T04:33:36;13.60;99.90
13848;DHT22;6994;49.752;6.094;2022-09-01T04:36:15;13.50;99.90
13848;DHT22;6994;49.752;6.094;2022-09-01T04:38:41;13.40;99.90
13848;DHT22;6994;49.752;6.094;2022-09-01T04:41:08;13.30;99.90
13848;DHT22;6994;49.752;6.094;2022-09-01T04:43:36;13.40;99.90
13848;DHT22;6994;49.752;6.094;2022-09-01T04:46:04;13.40;99.90
13848;DHT22;6994;49.752;6.094;2022-09-01T04:48:31;13.40;99.90
13848;DHT22;6994;49.752;6.094;2022-09-01T04:50:58;13.40;99.90
13848;DHT22;6994;49.752;6.094;2022-09-01T04:53:25;13.40;99.90
13848;DHT22;6994;49.752;6.094;2022-09-01T04:55:52;13.30;99.90
13848;DHT22;6994;49.752;6.094;2022-09-01T04:58:20;13.30;99.90
13848;DHT22;6994;49.752;6.094;2022-09-01T05:00:47;13.20;99.90
13848;DHT22;6994;49.752;6.094;2022-09-01T05:03:14;13.20;99.90
13848;DHT22;6994;49.752;6.094;2022-09-01T05:05:43;13.20;99.90
13848;DHT22;6994;49.752;6.094;2022-09-01T05:08:09;13.10;99.90
13848;DHT22;6994;49.752;6.094;2022-09-01T05:10:37;13.10;99.90
13848;DHT22;6994;49.752;6.094;2022-09-01T05:13:03;13.10;99.90
13848;DHT22;6994;49.752;6.094;2022-09-01T05:15:30;13.10;99.90
13848;DHT22;6994;49.752;6.094;2022-09-01T05:17:58;13.10;99.90
13848;DHT22;6994;49.752;6.094;2022-09-01T05:20:25;13.10;99.90
13848;DHT22;6994;49.752;6.094;2022-09-01T05:22:53;13.10;99.90
13848;DHT22;6994;49.752;6.094;2022-09-01T05:25:20;13.10;99.90
13848;DHT22;6994;49.752;6.094;2022-09-01T05:27:47;13.10;99.90
13848;DHT22;6994;49.752;6.094;2022-09-01T05:30:17;13.10;99.90
13848;DHT22;6994;49.752;6.094;2022-09-01T05:32:44;13.10;99.90
13848;DHT22;6994;49.752;6.094;2022-09-01T05:35:12;13.20;99.90
13848;DHT22;6994;49.752;6.094;2022-09-01T05:37:39;13.20;99.90
13848;DHT22;6994;49.752;6.094;2022-09-01T05:40:06;13.40;99.90
13848;DHT22;6994;49.752;6.094;2022-09-01T05:42:34;13.50;99.90
13848;DHT22;6994;49.752;6.094;2022-09-01T05:45:00;13.50;99.90
13848;DHT22;6994;49.752;6.094;2022-09-01T05:47:28;13.50;99.90
13848;DHT22;6994;49.752;6.094;2022-09-01T05:49:55;13.60;99.90
13848;DHT22;6994;49.752;6.094;2022-09-01T05:52:22;13.80;99.90
13848;DHT22;6994;49.752;6.094;2022-09-01T05:54:49;13.90;99.90
13848;DHT22;6994;49.752;6.094;2022-09-01T05:57:17;13.90;99.90
13848;DHT22;6994;49.752;6.094;2022-09-01T05:59:44;13.90;99.90
13848;DHT22;6994;49.752;6.094;2022-09-01T06:02:11;13.90;99.90
13848;DHT22;6994;49.752;6.094;2022-09-01T06:04:39;13.90;99.90
13848;DHT22;6994;49.752;6.094;2022-09-01T06:07:12;13.90;99.90
13848;DHT22;6994;49.752;6.094;2022-09-01T06:09:39;14.00;99.90
13848;DHT22;6994;49.752;6.094;2022-09-01T06:12:06;14.00;99.90
13848;DHT22;6994;49.752;6.094;2022-09-01T06:14:33;14.00;99.90
13848;DHT22;6994;49.752;6.094;2022-09-01T06:17:00;14.10;99.90
13848;DHT22;6994;49.752;6.094;2022-09-01T06:19:28;14.10;99.90
13848;DHT22;6994;49.752;6.094;2022-09-01T06:21:55;14.20;99.90
13848;DHT22;6994;49.752;6.094;2022-09-01T06:24:23;14.30;99.90
13848;DHT22;6994;49.752;6.094;2022-09-01T06:26:50;14.30;99.90
13848;DHT22;6994;49.752;6.094;2022-09-01T06:29:17;14.40;99.90
13848;DHT22;6994;49.752;6.094;2022-09-01T06:31:44;14.40;99.90
13848;DHT22;6994;49.752;6.094;2022-09-01T06:34:12;14.50;99.90
13848;DHT22;6994;49.752;6.094;2022-09-01T06:36:39;14.50;99.90
13848;DHT22;6994;49.752;6.094;2022-09-01T06:39:06;14.60;99.90
13848;DHT22;6994;49.752;6.094;2022-09-01T06:41:33;14.70;99.90
13848;DHT22;6994;49.752;6.094;2022-09-01T06:44:01;14.80;99.90
13848;DHT22;6994;49.752;6.094;2022-09-01T06:46:28;14.80;99.90
13848;DHT22;6994;49.752;6.094;2022-09-01T06:48:56;14.90;99.90
13848;DHT22;6994;49.752;6.094;2022-09-01T06:51:23;15.00;99.90
13848;DHT22;6994;49.752;6.094;2022-09-01T06:53:50;15.10;99.90
13848;DHT22;6994;49.752;6.094;2022-09-01T06:56:17;15.10;99.90
13848;DHT22;6994;49.752;6.094;2022-09-01T06:58:45;15.20;99.90
13848;DHT22;6994;49.752;6.094;2022-09-01T07:01:12;15.30;99.90
13848;DHT22;6994;49.752;6.094;2022-09-01T07:03:39;15.40;99.90
13848;DHT22;6994;49.752;6.094;2022-09-01T07:06:06;15.40;99.90
13848;DHT22;6994;49.752;6.094;2022-09-01T07:08:34;15.60;99.90
13848;DHT22;6994;49.752;6.094;2022-09-01T07:11:02;15.70;99.90
13848;DHT22;6994;49.752;6.094;2022-09-01T07:13:30;15.70;99.90
13848;DHT22;6994;49.752;6.094;2022-09-01T07:15:58;15.80;99.90
13848;DHT22;6994;49.752;6.094;2022-09-01T07:18:25;15.80;99.90
13848;DHT22;6994;49.752;6.094;2022-09-01T07:20:53;15.90;99.90
13848;DHT22;6994;49.752;6.094;2022-09-01T07:23:20;16.00;99.90
13848;DHT22;6994;49.752;6.094;2022-09-01T07:25:47;16.00;99.90
13848;DHT22;6994;49.752;6.094;2022-09-01T07:28:15;16.10;99.90
13848;DHT22;6994;49.752;6.094;2022-09-01T07:30:42;16.40;99.90
13848;DHT22;6994;49.752;6.094;2022-09-01T07:33:08;16.60;99.90
13848;DHT22;6994;49.752;6.094;2022-09-01T07:35:39;16.90;99.90
13848;DHT22;6994;49.752;6.094;2022-09-01T07:38:03;17.00;99.90
13848;DHT22;6994;49.752;6.094;2022-09-01T07:40:30;17.10;99.90
13848;DHT22;6994;49.752;6.094;2022-09-01T07:42:57;17.10;99.90
13848;DHT22;6994;49.752;6.094;2022-09-01T07:45:24;17.10;99.90
13848;DHT22;6994;49.752;6.094;2022-09-01T07:47:52;17.20;99.90
13848;DHT22;6994;49.752;6.094;2022-09-01T07:50:20;17.20;99.90
13848;DHT22;6994;49.752;6.094;2022-09-01T07:52:47;17.20;99.90
13848;DHT22;6994;49.752;6.094;2022-09-01T07:55:15;17.30;99.90
13848;DHT22;6994;49.752;6.094;2022-09-01T07:57:42;17.40;99.90
13848;DHT22;6994;49.752;6.094;2022-09-01T08:00:09;17.70;99.90
13848;DHT22;6994;49.752;6.094;2022-09-01T08:02:37;17.90;99.90
13848;DHT22;6994;49.752;6.094;2022-09-01T08:05:07;17.90;99.90
13848;DHT22;6994;49.752;6.094;2022-09-01T08:07:34;17.90;99.90
13848;DHT22;6994;49.752;6.094;2022-09-01T08:10:02;17.90;99.90
13848;DHT22;6994;49.752;6.094;2022-09-01T08:12:28;18.00;99.90
13848;DHT22;6994;49.752;6.094;2022-09-01T08:14:55;18.00;99.90
13848;DHT22;6994;49.752;6.094;2022-09-01T08:17:23;18.10;99.90
13848;DHT22;6994;49.752;6.094;2022-09-01T08:19:51;18.30;99.90
13848;DHT22;6994;49.752;6.094;2022-09-01T08:22:19;18.40;99.90
13848;DHT22;6994;49.752;6.094;2022-09-01T08:24:47;18.40;99.90
13848;DHT22;6994;49.752;6.094;2022-09-01T08:27:14;18.40;99.90
13848;DHT22;6994;49.752;6.094;2022-09-01T08:29:41;18.50;99.90
13848;DHT22;6994;49.752;6.094;2022-09-01T08:32:09;18.60;99.90
13848;DHT22;6994;49.752;6.094;2022-09-01T08:34:35;18.70;99.90
13848;DHT22;6994;49.752;6.094;2022-09-01T08:37:06;18.90;99.90
13848;DHT22;6994;49.752;6.094;2022-09-01T08:39:30;19.10;99.90
13848;DHT22;6994;49.752;6.094;2022-09-01T08:42:08;19.10;99.90
13848;DHT22;6994;49.752;6.094;2022-09-01T08:44:40;19.20;99.90
13848;DHT22;6994;49.752;6.094;2022-09-01T08:47:09;19.50;99.90
13848;DHT22;6994;49.752;6.094;2022-09-01T08:49:35;19.60;99.90
13848;DHT22;6994;49.752;6.094;2022-09-01T08:54:48;19.60;99.90
13848;DHT22;6994;49.752;6.094;2022-09-01T08:59:48;19.70;99.90
13848;DHT22;6994;49.752;6.094;2022-09-01T09:05:08;19.80;99.90
13848;DHT22;6994;49.752;6.094;2022-09-01T09:08:02;19.90;99.90
13848;DHT22;6994;49.752;6.094;2022-09-01T09:13:27;20.70;99.90
13848;DHT22;6994;49.752;6.094;2022-09-01T09:16:21;20.80;99.90
13848;DHT22;6994;49.752;6.094;2022-09-01T09:18:34;20.90;99.90
13848;DHT22;6994;49.752;6.094;2022-09-01T09:21:24;20.90;99.90
13848;DHT22;6994;49.752;6.094;2022-09-01T09:23:31;21.00;99.90
13848;DHT22;6994;49.752;6.094;2022-09-01T09:25:56;21.00;99.90
13848;DHT22;6994;49.752;6.094;2022-09-01T09:28:23;21.10;99.90
13848;DHT22;6994;49.752;6.094;2022-09-01T09:30:51;21.10;99.90
13848;DHT22;6994;49.752;6.094;2022-09-01T09:33:36;21.40;99.90
13848;DHT22;6994;49.752;6.094;2022-09-01T09:36:16;21.50;99.90
13848;DHT22;6994;49.752;6.094;2022-09-01T09:38:42;21.80;99.90
13848;DHT22;6994;49.752;6.094;2022-09-01T09:41:16;22.20;99.90
13848;DHT22;6994;49.752;6.094;2022-09-01T09:43:55;22.20;99.90
13848;DHT22;6994;49.752;6.094;2022-09-01T09:49:12;22.20;99.90
13848;DHT22;6994;49.752;6.094;2022-09-01T09:51:39;22.40;99.90
13848;DHT22;6994;49.752;6.094;2022-09-01T09:54:24;22.70;99.90
13848;DHT22;6994;49.752;6.094;2022-09-01T09:57:08;22.70;99.90
13848;DHT22;6994;49.752;6.094;2022-09-01T09:59:35;22.70;99.90
13848;DHT22;6994;49.752;6.094;2022-09-01T10:02:06;22.70;99.90
13848;DHT22;6994;49.752;6.094;2022-09-01T10:04:31;22.70;99.90
13848;DHT22;6994;49.752;6.094;2022-09-01T10:06:58;23.10;99.90
13848;DHT22;6994;49.752;6.094;2022-09-01T10:11:54;23.30;99.90
13848;DHT22;6994;49.752;6.094;2022-09-01T10:14:22;23.30;99.90
13848;DHT22;6994;49.752;6.094;2022-09-01T10:16:49;23.40;99.90
13848;DHT22;6994;49.752;6.094;2022-09-01T10:19:15;23.40;99.90
13848;DHT22;6994;49.752;6.094;2022-09-01T10:21:43;23.70;99.90
13848;DHT22;6994;49.752;6.094;2022-09-01T10:26:50;24.20;99.60
13848;DHT22;6994;49.752;6.094;2022-09-01T10:29:24;24.30;99.90
13848;DHT22;6994;49.752;6.094;2022-09-01T10:31:50;24.30;99.80
13848;DHT22;6994;49.752;6.094;2022-09-01T10:34:17;24.40;99.90
13848;DHT22;6994;49.752;6.094;2022-09-01T10:36:44;24.70;98.70
13848;DHT22;6994;49.752;6.094;2022-09-01T10:39:12;24.80;98.90
13848;DHT22;6994;49.752;6.094;2022-09-01T10:46:48;25.10;96.30
13848;DHT22;6994;49.752;6.094;2022-09-01T10:49:19;25.10;96.50
13848;DHT22;6994;49.752;6.094;2022-09-01T10:51:45;25.20;97.10
13848;DHT22;6994;49.752;6.094;2022-09-01T10:57:27;25.70;96.30
13848;DHT22;6994;49.752;6.094;2022-09-01T10:59:34;25.80;96.00
13848;DHT22;6994;49.752;6.094;2022-09-01T11:02:18;26.00;95.70
13848;DHT22;6994;49.752;6.094;2022-09-01T11:10:27;25.50;96.10
13848;DHT22;6994;49.752;6.094;2022-09-01T11:12:46;25.30;95.20
13848;DHT22;6994;49.752;6.094;2022-09-01T11:20:21;25.00;95.60
13848;DHT22;6994;49.752;6.094;2022-09-01T11:22:39;25.10;96.20
13848;DHT22;6994;49.752;6.094;2022-09-01T11:25:11;26.10;96.30
13848;DHT22;6994;49.752;6.094;2022-09-01T11:30:22;26.40;95.90
13848;DHT22;6994;49.752;6.094;2022-09-01T11:32:49;26.50;94.00
13848;DHT22;6994;49.752;6.094;2022-09-01T11:35:17;26.40;94.60
13848;DHT22;6994;49.752;6.094;2022-09-01T11:37:46;26.50;94.40
13848;DHT22;6994;49.752;6.094;2022-09-01T11:40:11;26.90;92.90
13848;DHT22;6994;49.752;6.094;2022-09-01T11:42:40;27.60;92.20
13848;DHT22;6994;49.752;6.094;2022-09-01T11:45:20;27.60;92.20
13848;DHT22;6994;49.752;6.094;2022-09-01T11:47:46;28.40;90.40
13848;DHT22;6994;49.752;6.094;2022-09-01T11:52:42;29.40;90.30
13848;DHT22;6994;49.752;6.094;2022-09-01T11:55:09;29.40;87.30
13848;DHT22;6994;49.752;6.094;2022-09-01T11:57:37;29.70;88.80
13848;DHT22;6994;49.752;6.094;2022-09-01T12:00:10;30.20;89.10
13848;DHT22;6994;49.752;6.094;2022-09-01T12:02:34;31.30;77.30
13848;DHT22;6994;49.752;6.094;2022-09-01T12:05:02;31.20;78.30
13848;DHT22;6994;49.752;6.094;2022-09-01T12:07:37;30.80;78.90
13848;DHT22;6994;49.752;6.094;2022-09-01T12:10:02;30.00;79.70
13848;DHT22;6994;49.752;6.094;2022-09-01T12:12:32;30.00;79.40
13848;DHT22;6994;49.752;6.094;2022-09-01T12:15:08;30.10;78.60
13848;DHT22;6994;49.752;6.094;2022-09-01T12:17:31;30.10;78.60
13848;DHT22;6994;49.752;6.094;2022-09-01T12:22:47;31.10;77.00
13848;DHT22;6994;49.752;6.094;2022-09-01T12:25:21;32.40;70.80
13848;DHT22;6994;49.752;6.094;2022-09-01T12:27:47;32.10;69.50
13848;DHT22;6994;49.752;6.094;2022-09-01T12:30:14;31.50;69.60
13848;DHT22;6994;49.752;6.094;2022-09-01T12:32:41;30.90;72.10
13848;DHT22;6994;49.752;6.094;2022-09-01T12:35:24;30.90;70.50
13848;DHT22;6994;49.752;6.094;2022-09-01T12:37:52;30.10;72.40
13848;DHT22;6994;49.752;6.094;2022-09-01T12:40:29;29.60;74.10
13848;DHT22;6994;49.752;6.094;2022-09-01T12:42:53;29.20;73.10
13848;DHT22;6994;49.752;6.094;2022-09-01T12:45:42;29.20;73.10
13848;DHT22;6994;49.752;6.094;2022-09-01T12:48:24;28.90;75.90
13848;DHT22;6994;49.752;6.094;2022-09-01T12:50:50;28.90;76.90
13848;DHT22;6994;49.752;6.094;2022-09-01T12:53:18;29.70;74.70
13848;DHT22;6994;49.752;6.094;2022-09-01T12:55:58;29.90;75.40
13848;DHT22;6994;49.752;6.094;2022-09-01T12:58:22;30.40;75.90
13848;DHT22;6994;49.752;6.094;2022-09-01T13:01:06;30.60;73.30
13848;DHT22;6994;49.752;6.094;2022-09-01T13:03:34;30.70;72.60
13848;DHT22;6994;49.752;6.094;2022-09-01T13:06:01;31.20;71.80
13848;DHT22;6994;49.752;6.094;2022-09-01T13:08:32;32.00;69.10
13848;DHT22;6994;49.752;6.094;2022-09-01T13:11:01;31.80;68.30
13848;DHT22;6994;49.752;6.094;2022-09-01T13:13:25;31.40;67.10
13848;DHT22;6994;49.752;6.094;2022-09-01T13:15:53;30.80;68.80
13848;DHT22;6994;49.752;6.094;2022-09-01T13:18:20;30.20;71.50
13848;DHT22;6994;49.752;6.094;2022-09-01T13:20:48;29.30;73.20
13848;DHT22;6994;49.752;6.094;2022-09-01T13:23:16;29.20;72.30
13848;DHT22;6994;49.752;6.094;2022-09-01T13:25:43;29.00;74.00
13848;DHT22;6994;49.752;6.094;2022-09-01T13:28:12;29.40;74.10
13848;DHT22;6994;49.752;6.094;2022-09-01T13:30:39;30.40;72.90
13848;DHT22;6994;49.752;6.094;2022-09-01T13:33:08;31.60;69.00
13848;DHT22;6994;49.752;6.094;2022-09-01T13:35:35;32.00;65.80
13848;DHT22;6994;49.752;6.094;2022-09-01T13:38:02;32.00;65.70
13848;DHT22;6994;49.752;6.094;2022-09-01T13:40:30;32.00;65.40
13848;DHT22;6994;49.752;6.094;2022-09-01T13:42:57;32.00;64.70
13848;DHT22;6994;49.752;6.094;2022-09-01T13:45:24;32.40;65.30
13848;DHT22;6994;49.752;6.094;2022-09-01T13:47:51;33.20;63.60
13848;DHT22;6994;49.752;6.094;2022-09-01T13:50:19;34.00;62.20
13848;DHT22;6994;49.752;6.094;2022-09-01T13:52:47;34.70;58.50
13848;DHT22;6994;49.752;6.094;2022-09-01T13:55:15;35.10;57.30
13848;DHT22;6994;49.752;6.094;2022-09-01T13:57:40;35.40;58.20
13848;DHT22;6994;49.752;6.094;2022-09-01T14:00:10;35.80;55.90
13848;DHT22;6994;49.752;6.094;2022-09-01T14:02:39;35.80;55.90
13848;DHT22;6994;49.752;6.094;2022-09-01T14:05:05;36.30;55.80
13848;DHT22;6994;49.752;6.094;2022-09-01T14:07:33;37.50;52.70
13848;DHT22;6994;49.752;6.094;2022-09-01T14:10:00;37.70;52.20
13848;DHT22;6994;49.752;6.094;2022-09-01T14:12:27;38.90;49.60
13848;DHT22;6994;49.752;6.094;2022-09-01T14:14:54;38.70;49.90
13848;DHT22;6994;49.752;6.094;2022-09-01T14:17:22;38.40;49.30
13848;DHT22;6994;49.752;6.094;2022-09-01T14:19:49;37.80;49.40
13848;DHT22;6994;49.752;6.094;2022-09-01T14:22:17;36.80;50.60
13848;DHT22;6994;49.752;6.094;2022-09-01T14:24:45;35.90;51.00
13848;DHT22;6994;49.752;6.094;2022-09-01T14:27:12;35.80;50.90
13848;DHT22;6994;49.752;6.094;2022-09-01T14:29:39;34.80;52.20
13848;DHT22;6994;49.752;6.094;2022-09-01T14:32:06;33.80;53.80
13848;DHT22;6994;49.752;6.094;2022-09-01T14:34:34;32.90;55.00
13848;DHT22;6994;49.752;6.094;2022-09-01T14:37:01;32.10;56.20
13848;DHT22;6994;49.752;6.094;2022-09-01T14:39:28;31.40;57.00
13848;DHT22;6994;49.752;6.094;2022-09-01T14:41:55;30.70;58.00
13848;DHT22;6994;49.752;6.094;2022-09-01T14:44:22;30.40;60.60
13848;DHT22;6994;49.752;6.094;2022-09-01T14:46:50;30.00;60.80
13848;DHT22;6994;49.752;6.094;2022-09-01T14:49:17;29.30;61.60
13848;DHT22;6994;49.752;6.094;2022-09-01T14:51:46;29.20;62.80
13848;DHT22;6994;49.752;6.094;2022-09-01T14:54:13;29.30;63.10
13848;DHT22;6994;49.752;6.094;2022-09-01T14:56:41;29.30;63.10
13848;DHT22;6994;49.752;6.094;2022-09-01T14:59:08;29.40;64.30
13848;DHT22;6994;49.752;6.094;2022-09-01T15:01:36;29.10;63.70
13848;DHT22;6994;49.752;6.094;2022-09-01T15:04:04;28.70;65.00
13848;DHT22;6994;49.752;6.094;2022-09-01T15:06:31;28.70;65.00
13848;DHT22;6994;49.752;6.094;2022-09-01T15:08:58;28.30;65.40
13848;DHT22;6994;49.752;6.094;2022-09-01T15:11:25;28.00;66.30
13848;DHT22;6994;49.752;6.094;2022-09-01T15:13:53;27.60;66.90
13848;DHT22;6994;49.752;6.094;2022-09-01T15:16:21;27.20;67.50
13848;DHT22;6994;49.752;6.094;2022-09-01T15:18:47;27.00;68.40
13848;DHT22;6994;49.752;6.094;2022-09-01T15:21:21;26.70;69.60
13848;DHT22;6994;49.752;6.094;2022-09-01T15:23:44;26.50;70.20
13848;DHT22;6994;49.752;6.094;2022-09-01T15:26:11;26.30;71.00
13848;DHT22;6994;49.752;6.094;2022-09-01T15:28:39;26.10;71.70
13848;DHT22;6994;49.752;6.094;2022-09-01T15:31:07;26.40;72.60
13848;DHT22;6994;49.752;6.094;2022-09-01T15:33:35;26.30;72.80
13848;DHT22;6994;49.752;6.094;2022-09-01T15:36:03;26.20;71.80
13848;DHT22;6994;49.752;6.094;2022-09-01T15:38:31;26.10;73.10
13848;DHT22;6994;49.752;6.094;2022-09-01T15:40:59;26.00;73.50
13848;DHT22;6994;49.752;6.094;2022-09-01T15:43:27;26.30;73.30
13848;DHT22;6994;49.752;6.094;2022-09-01T15:45:58;26.30;72.30
13848;DHT22;6994;49.752;6.094;2022-09-01T15:48:26;26.20;72.20
13848;DHT22;6994;49.752;6.094;2022-09-01T15:50:52;26.20;73.30
13848;DHT22;6994;49.752;6.094;2022-09-01T15:53:20;26.20;72.90
13848;DHT22;6994;49.752;6.094;2022-09-01T15:55:47;26.40;72.80
13848;DHT22;6994;49.752;6.094;2022-09-01T15:58:15;26.40;72.70
13848;DHT22;6994;49.752;6.094;2022-09-01T16:00:42;26.50;73.00
13848;DHT22;6994;49.752;6.094;2022-09-01T16:03:10;26.40;72.40
13848;DHT22;6994;49.752;6.094;2022-09-01T16:05:38;26.20;72.20
13848;DHT22;6994;49.752;6.094;2022-09-01T16:08:06;26.10;74.30
13848;DHT22;6994;49.752;6.094;2022-09-01T16:10:37;26.10;74.30
13848;DHT22;6994;49.752;6.094;2022-09-01T16:13:03;25.90;74.30
13848;DHT22;6994;49.752;6.094;2022-09-01T16:15:31;25.70;75.80
13848;DHT22;6994;49.752;6.094;2022-09-01T16:20:51;25.50;75.80
13848;DHT22;6994;49.752;6.094;2022-09-01T16:23:22;25.20;77.90
13848;DHT22;6994;49.752;6.094;2022-09-01T16:25:48;25.10;77.80
13848;DHT22;6994;49.752;6.094;2022-09-01T16:28:23;25.00;77.90
13848;DHT22;6994;49.752;6.094;2022-09-01T16:30:49;24.80;77.70
13848;DHT22;6994;49.752;6.094;2022-09-01T16:33:15;24.90;78.90
13848;DHT22;6994;49.752;6.094;2022-09-01T16:38:40;24.90;78.40
13848;DHT22;6994;49.752;6.094;2022-09-01T16:43:44;25.10;77.60
13848;DHT22;6994;49.752;6.094;2022-09-01T16:46:26;25.10;78.30
13848;DHT22;6994;49.752;6.094;2022-09-01T16:48:57;25.00;77.70